createdAt,value
2016-05-25T18:24:11.193Z,12397
2016-05-25T18:24:27.068Z,12292
2016-05-25T18:24:40.536Z,12167
2016-05-25T18:25:01.539Z,12018
2016-05-25T18:25:15.946Z,11874
2016-05-25T18:25:36.805Z,11899
2016-05-25T18:25:51.027Z,11794
2016-05-25T18:26:04.527Z,11680
2016-05-25T18:26:19.136Z,11558
2016-05-25T18:26:32.730Z,11436
2016-05-25T18:26:46.655Z,11324
2016-05-25T18:27:00.858Z,11175
2016-05-25T18:27:14.780Z,11073
2016-05-25T18:27:28.577Z,10953
2016-05-25T18:27:44.342Z,10814
2016-05-25T18:28:01.173Z,10658
2016-05-25T18:28:15.642Z,10538
2016-05-25T18:28:29.939Z,10426
2016-05-25T18:28:44.173Z,10314
2016-05-25T18:28:57.582Z,10210
2016-05-25T18:29:11.691Z,10106
2016-05-25T18:29:29.816Z,9967
2016-05-25T18:29:43.832Z,9872
2016-05-25T18:29:58.475Z,9787
2016-05-25T18:30:12.710Z,9708
2016-05-25T18:30:26.335Z,9611
2016-05-25T18:30:39.866Z,9533
2016-05-25T18:30:55.634Z,9454
2016-05-25T18:31:15.509Z,9357
2016-05-25T18:31:29.213Z,9284
2016-05-25T18:31:44.275Z,9250
2016-05-25T18:31:58.841Z,9173
2016-05-25T18:32:13.403Z,9230
2016-05-25T18:32:29.872Z,9401
2016-05-25T18:32:52.608Z,9903
2016-05-25T18:33:07.218Z,10803
2016-05-25T18:33:22.608Z,11892
2016-05-25T18:33:36.218Z,12345
2016-05-25T18:33:51.736Z,12290
2016-05-25T18:34:06.846Z,11752
2016-05-25T18:34:20.971Z,11235
2016-05-25T18:34:35.236Z,10629
2016-05-25T18:34:52.410Z,9952
2016-05-25T18:35:06.738Z,9398
2016-05-25T18:35:20.332Z,8947
2016-05-25T18:35:34.504Z,8586
2016-05-25T18:35:48.679Z,8377
2016-05-25T18:36:03.913Z,8197
2016-05-25T18:36:17.882Z,8107
2016-05-25T18:36:31.632Z,8097
2016-05-25T18:36:46.135Z,8090
2016-05-25T18:37:01.354Z,8165
2016-05-25T18:37:15.432Z,8207
2016-05-25T18:37:29.322Z,8267
2016-05-25T18:37:47.950Z,8271
2016-05-25T18:38:01.716Z,8329
2016-05-25T18:38:15.857Z,8466
2016-05-25T18:38:29.419Z,8555
2016-05-25T18:38:43.044Z,8574
2016-05-25T18:38:57.390Z,8583
2016-05-25T18:39:11.468Z,8607
2016-05-25T18:39:25.812Z,8659
2016-05-25T18:39:39.452Z,8718
2016-05-25T18:39:53.049Z,8751
2016-05-25T18:40:06.721Z,8720
2016-05-25T18:40:22.174Z,8647
2016-05-25T18:40:36.268Z,8483
2016-05-25T18:40:51.052Z,8306
2016-05-25T18:41:04.849Z,8118
2016-05-25T18:41:18.599Z,7905
2016-05-25T18:41:33.521Z,7687
2016-05-25T18:41:47.054Z,7487
2016-05-25T18:42:00.648Z,7302
2016-05-25T21:34:23.048Z,13
2016-05-25T21:34:36.970Z,4
2016-05-25T21:34:50.736Z,13
2016-05-25T21:35:04.833Z,13
2016-05-25T21:35:19.270Z,13
2016-05-25T21:35:32.817Z,13
2016-05-25T21:35:46.754Z,4
2016-05-25T21:36:00.616Z,0
2016-05-25T21:36:15.788Z,0
2016-05-25T21:36:29.428Z,0
2016-05-25T21:36:43.053Z,0
2016-05-25T21:36:57.962Z,0
2016-05-25T21:37:11.555Z,0
2016-05-25T21:37:24.868Z,0
2016-05-25T21:37:39.055Z,0
2016-05-25T21:37:52.293Z,0
2016-05-25T21:38:08.855Z,0
2016-05-25T21:38:22.418Z,0
2016-05-25T21:38:35.996Z,0
2016-05-25T21:38:49.605Z,0
2016-05-25T21:39:03.296Z,0
2016-05-25T21:39:16.796Z,0
2016-05-25T21:39:31.014Z,0
2016-05-25T21:39:44.530Z,0
2016-05-25T21:39:58.221Z,0
2016-05-25T21:40:12.174Z,0
2016-05-25T21:40:25.767Z,0
2016-05-25T21:40:46.564Z,0
2016-05-25T21:40:59.941Z,0
2016-05-25T21:41:13.441Z,0
2016-05-25T21:41:27.660Z,0
2016-05-25T21:41:41.957Z,0
2016-05-25T21:41:55.351Z,0
2016-05-25T21:42:08.835Z,0
2016-05-25T21:42:22.257Z,0
2016-05-25T21:42:35.710Z,0
2016-05-25T21:42:49.632Z,0
2016-05-25T21:43:02.994Z,0
2016-05-25T21:43:16.400Z,0
2016-05-25T21:43:30.916Z,0
2016-05-25T21:43:44.354Z,0
